createdAt,value
2022-09-28T00:04:51.248Z,100.00
2022-09-28T00:09:51.997Z,100.00
2022-09-28T00:14:53.682Z,100.00
2022-09-28T00:19:55.953Z,100.00
2022-09-28T00:24:56.680Z,100.00
2022-09-28T00:29:57.475Z,100.00
2022-09-28T00:34:58.285Z,100.00
2022-09-28T00:39:59.052Z,100.00
2022-09-28T00:44:59.892Z,100.00
2022-09-28T00:50:27.600Z,100.00
2022-09-28T00:55:39.074Z,100.00
2022-09-28T01:00:40.350Z,100.00
2022-09-28T01:05:42.799Z,100.00
2022-09-28T01:10:43.626Z,100.00
2022-09-28T01:16:03.699Z,100.00
2022-09-28T01:21:26.609Z,100.00
2022-09-28T01:26:59.882Z,100.00
2022-09-28T01:32:21.681Z,100.00
2022-09-28T01:37:33.218Z,100.00
2022-09-28T01:42:38.347Z,100.00
2022-09-28T01:47:40.618Z,100.00
2022-09-28T01:52:58.311Z,100.00
2022-09-28T01:58:16.955Z,100.00
2022-09-28T02:03:23.937Z,100.00
2022-09-28T02:08:37.120Z,100.00
2022-09-28T02:13:46.239Z,100.00
2022-09-28T02:18:47.466Z,100.00
2022-09-28T02:24:02.675Z,100.00
2022-09-28T02:29:04.450Z,100.00
2022-09-28T02:34:05.375Z,100.00
2022-09-28T02:39:13.242Z,100.00
2022-09-28T02:44:38.610Z,100.00
2022-09-28T02:53:49.313Z,100.00
2022-09-28T03:02:03.869Z,100.00
2022-09-28T03:07:22.725Z,100.00
2022-09-28T03:12:25.619Z,100.00
2022-09-28T03:17:26.469Z,100.00
2022-09-28T03:22:27.416Z,100.00
2022-09-28T03:27:28.158Z,100.00
2022-09-28T03:32:29.370Z,100.00
2022-09-28T03:37:30.279Z,100.00
2022-09-28T03:42:31.557Z,100.00
2022-09-28T03:47:32.419Z,100.00
2022-09-28T03:52:33.301Z,100.00
2022-09-28T03:57:34.076Z,100.00
2022-09-28T04:02:35.212Z,100.00
2022-09-28T04:07:36.675Z,100.00
2022-09-28T04:12:37.870Z,100.00
2022-09-28T04:17:40.395Z,100.00
2022-09-28T04:22:48.820Z,100.00
2022-09-28T04:28:07.775Z,100.00
2022-09-28T04:33:10.444Z,100.00
2022-09-28T04:38:11.183Z,100.00
2022-09-28T04:43:12.281Z,100.00
2022-09-28T04:48:13.133Z,100.00
2022-09-28T04:54:29.561Z,100.00
2022-09-28T04:59:30.848Z,100.00
2022-09-28T05:04:31.894Z,100.00
2022-09-28T05:09:45.290Z,100.00
2022-09-28T05:14:46.106Z,100.00
2022-09-28T05:19:46.989Z,100.00
2022-09-28T05:24:48.225Z,100.00
2022-09-28T05:29:49.351Z,100.00
2022-09-28T05:39:55.961Z,100.00
2022-09-28T05:44:59.923Z,100.00
2022-09-28T05:50:01.319Z,100.00
2022-09-28T05:55:03.224Z,100.00
2022-09-28T06:00:08.209Z,100.00
2022-09-28T06:05:13.742Z,100.00
2022-09-28T06:10:14.758Z,100.00
2022-09-28T06:15:17.096Z,100.00
2022-09-28T06:20:18.977Z,100.00
2022-09-28T06:25:42.623Z,100.00
2022-09-28T06:30:44.283Z,100.00
2022-09-28T06:35:48.962Z,100.00
2022-09-28T06:40:50.338Z,100.00
2022-09-28T06:45:53.038Z,100.00
2022-09-28T06:51:55.456Z,100.00
2022-09-28T06:57:08.299Z,100.00
2022-09-28T07:02:13.870Z,100.00
2022-09-28T07:07:48.079Z,100.00
2022-09-28T07:13:37.384Z,100.00
2022-09-28T07:18:47.500Z,100.00
2022-09-28T07:23:53.865Z,100.00
2022-09-28T07:29:37.353Z,100.00
2022-09-28T07:41:31.726Z,100.00
2022-09-28T07:46:33.998Z,100.00
2022-09-28T07:51:43.429Z,100.00
2022-09-28T07:58:37.478Z,100.00
2022-09-28T08:03:59.627Z,100.00
2022-09-28T08:09:01.042Z,100.00
2022-09-28T08:14:20.552Z,100.00
2022-09-28T08:20:51.685Z,100.00
2022-09-28T08:25:54.278Z,100.00
2022-09-28T08:30:59.157Z,100.00
2022-09-28T08:36:20.983Z,99.95
2022-09-28T08:42:39.114Z,98.22
2022-09-28T08:49:13.471Z,95.71
2022-09-28T08:55:04.927Z,94.09
2022-09-28T09:00:28.814Z,95.77
2022-09-28T09:05:59.430Z,95.27
2022-09-28T09:11:56.446Z,93.37
2022-09-28T09:17:25.328Z,91.73
2022-09-28T09:23:54.855Z,89.13
2022-09-28T09:29:20.984Z,86.95
2022-09-28T09:36:11.543Z,85.32
2022-09-28T09:46:40.040Z,85.70
2022-09-28T09:52:01.362Z,86.15
2022-09-28T09:57:13.745Z,86.90
2022-09-28T10:02:31.017Z,88.74
2022-09-28T10:08:29.537Z,90.06
2022-09-28T10:13:31.349Z,88.36
2022-09-28T10:18:34.982Z,91.10
2022-09-28T10:24:01.838Z,92.22
2022-09-28T10:30:46.751Z,92.85
2022-09-28T10:35:48.072Z,91.60
2022-09-28T10:40:57.695Z,90.96
2022-09-28T10:46:20.998Z,86.35
2022-09-28T10:51:46.443Z,86.36
2022-09-28T10:56:52.438Z,86.28
2022-09-28T11:02:54.314Z,84.86
2022-09-28T11:08:05.807Z,81.48
2022-09-28T11:13:12.032Z,76.51
2022-09-28T11:18:30.550Z,68.08
2022-09-28T11:23:33.535Z,70.85
2022-09-28T11:28:50.779Z,71.91
2022-09-28T11:34:06.325Z,74.75
2022-09-28T11:39:27.432Z,76.29
2022-09-28T11:50:39.136Z,78.87
2022-09-28T11:55:55.012Z,75.98
2022-09-28T12:01:08.046Z,74.94
2022-09-28T12:06:46.012Z,71.17
2022-09-28T12:11:57.928Z,69.16
2022-09-28T12:17:24.057Z,71.31
2022-09-28T12:22:32.385Z,70.92
2022-09-28T12:30:20.767Z,72.09
2022-09-28T12:38:38.499Z,70.38
2022-09-28T12:45:04.343Z,69.96
2022-09-28T12:51:50.779Z,72.17
2022-09-28T12:58:49.751Z,71.98
2022-09-28T13:04:13.308Z,70.66
2022-09-28T13:10:40.474Z,70.34
2022-09-28T13:16:05.085Z,72.12
2022-09-28T13:23:01.627Z,70.86
2022-09-28T13:28:04.811Z,74.54
2022-09-28T13:33:07.113Z,72.98
2022-09-28T13:39:27.415Z,72.69
2022-09-28T13:44:53.540Z,72.30
2022-09-28T13:51:49.012Z,70.81
2022-09-28T13:57:02.217Z,72.25
2022-09-28T14:02:31.088Z,71.09
2022-09-28T14:08:30.712Z,69.47
2022-09-28T14:16:42.929Z,70.85
2022-09-28T14:22:14.536Z,68.77
2022-09-28T14:27:45.343Z,71.34
2022-09-28T14:32:54.721Z,67.69
2022-09-28T14:38:18.574Z,69.70
2022-09-28T14:44:12.677Z,69.31
2022-09-28T14:50:00.887Z,71.65
2022-09-28T14:55:02.322Z,72.06
2022-09-28T15:00:08.360Z,73.29
2022-09-28T15:05:15.711Z,72.31
2022-09-28T15:10:31.993Z,70.59
2022-09-28T15:15:38.261Z,71.62
2022-09-28T15:20:41.257Z,72.57
2022-09-28T15:25:51.329Z,74.17
2022-09-28T15:30:59.023Z,75.11
2022-09-28T15:36:04.097Z,72.15
2022-09-28T15:41:06.804Z,74.05
2022-09-28T15:46:17.613Z,73.54
2022-09-28T15:51:21.301Z,74.63
2022-09-28T15:56:22.254Z,74.03
2022-09-28T16:01:36.263Z,73.46
2022-09-28T16:06:40.231Z,74.97
2022-09-28T16:11:41.133Z,76.69
2022-09-28T16:16:47.928Z,77.20
2022-09-28T16:21:52.129Z,78.43
2022-09-28T16:27:00.357Z,79.76
2022-09-28T16:33:54.743Z,81.29
2022-09-28T16:38:55.674Z,82.26
2022-09-28T16:44:01.459Z,82.92
2022-09-28T16:49:05.184Z,81.80
2022-09-28T16:54:36.853Z,83.32
2022-09-28T16:59:38.019Z,84.10
2022-09-28T17:04:39.064Z,87.23
2022-09-28T17:09:39.864Z,88.76
2022-09-28T17:14:40.956Z,89.54
2022-09-28T17:19:41.737Z,90.40
2022-09-28T17:24:45.127Z,91.06
2022-09-28T17:29:45.957Z,92.33
2022-09-28T17:34:55.977Z,93.86
2022-09-28T17:40:21.570Z,95.38
2022-09-28T17:45:26.319Z,96.89
2022-09-28T17:50:31.613Z,97.18
2022-09-28T17:55:35.609Z,97.00
2022-09-28T18:00:36.384Z,97.21
2022-09-28T18:05:37.279Z,97.00
2022-09-28T18:10:38.075Z,97.86
2022-09-28T18:15:39.087Z,98.39
2022-09-28T18:20:41.180Z,99.52
2022-09-28T18:25:43.784Z,100.00
2022-09-28T18:30:44.904Z,100.00
2022-09-28T18:35:53.453Z,100.00
2022-09-28T18:40:55.647Z,100.00
2022-09-28T18:45:56.449Z,100.00
2022-09-28T18:50:57.473Z,100.00
2022-09-28T18:56:08.483Z,100.00
2022-09-28T19:06:44.038Z,100.00
2022-09-28T19:11:45.479Z,100.00
2022-09-28T19:16:46.390Z,100.00
2022-09-28T19:21:47.242Z,100.00
2022-09-28T19:26:48.976Z,100.00
2022-09-28T19:31:51.061Z,100.00
2022-09-28T19:36:51.929Z,100.00
2022-09-28T19:41:53.476Z,100.00
2022-09-28T19:47:06.105Z,100.00
2022-09-28T19:52:15.451Z,100.00
2022-09-28T19:57:18.742Z,100.00
2022-09-28T20:02:20.458Z,100.00
2022-09-28T20:07:21.298Z,100.00
2022-09-28T20:12:22.420Z,100.00
2022-09-28T20:17:23.337Z,100.00
2022-09-28T20:22:24.086Z,100.00
2022-09-28T20:27:26.616Z,100.00
2022-09-28T20:32:31.313Z,100.00
2022-09-28T20:37:32.713Z,100.00
2022-09-28T20:42:33.463Z,100.00
2022-09-28T20:47:34.231Z,100.00
2022-09-28T20:52:34.970Z,100.00
2022-09-28T20:57:35.968Z,100.00
2022-09-28T21:02:36.826Z,100.00
2022-09-28T21:07:37.753Z,100.00
2022-09-28T21:12:39.072Z,100.00
2022-09-28T21:17:39.919Z,100.00
2022-09-28T21:22:40.693Z,100.00
2022-09-28T21:27:42.007Z,100.00
2022-09-28T21:32:42.733Z,100.00
2022-09-28T21:37:43.531Z,100.00
2022-09-28T21:42:44.307Z,100.00
2022-09-28T21:47:52.310Z,100.00
2022-09-28T21:52:54.671Z,100.00
2022-09-28T21:57:55.658Z,100.00
2022-09-28T22:02:56.467Z,100.00
2022-09-28T22:07:57.241Z,100.00
2022-09-28T22:12:57.984Z,100.00
2022-09-28T22:17:58.748Z,100.00
2022-09-28T22:22:59.589Z,100.00
2022-09-28T22:28:00.942Z,100.00
2022-09-28T22:33:01.870Z,100.00
2022-09-28T22:38:02.724Z,100.00
2022-09-28T22:43:03.507Z,100.00
2022-09-28T22:48:04.319Z,100.00
2022-09-28T22:53:05.646Z,100.00
2022-09-28T22:58:06.903Z,100.00
2022-09-28T23:03:08.169Z,100.00
2022-09-28T23:08:09.751Z,100.00
2022-09-28T23:13:10.491Z,100.00
2022-09-28T23:18:11.294Z,100.00
2022-09-28T23:23:12.497Z,100.00
2022-09-28T23:28:13.676Z,100.00
2022-09-28T23:33:16.585Z,100.00
2022-09-28T23:38:18.047Z,100.00
2022-09-28T23:43:18.913Z,100.00
2022-09-28T23:48:19.706Z,100.00
2022-09-28T23:53:20.499Z,100.00
2022-09-28T23:58:21.679Z,100.00
